sensor_id;sensor_type;location;lat;lon;timestamp;temperature;humidity
3986;DHT22;2007;48.750;9.278;2023-08-07T00:00:06;21.50;52.00
3986;DHT22;2007;48.750;9.278;2023-08-07T00:02:36;21.50;52.00
3986;DHT22;2007;48.750;9.278;2023-08-07T00:05:05;21.50;52.00
3986;DHT22;2007;48.750;9.278;2023-08-07T00:07:34;21.50;52.00
3986;DHT22;2007;48.750;9.278;2023-08-07T00:10:02;21.50;52.00
3986;DHT22;2007;48.750;9.278;2023-08-07T00:12:31;21.50;52.00
3986;DHT22;2007;48.750;9.278;2023-08-07T00:14:59;21.50;52.00
3986;DHT22;2007;48.750;9.278;2023-08-07T00:17:27;21.50;52.00
3986;DHT22;2007;48.750;9.278;2023-08-07T00:19:55;21.50;52.00
3986;DHT22;2007;48.750;9.278;2023-08-07T00:22:23;21.50;52.00
3986;DHT22;2007;48.750;9.278;2023-08-07T00:24:53;21.50;52.00
3986;DHT22;2007;48.750;9.278;2023-08-07T00:27:21;21.50;52.10
3986;DHT22;2007;48.750;9.278;2023-08-07T00:29:49;21.50;52.00
3986;DHT22;2007;48.750;9.278;2023-08-07T00:32:17;21.50;52.00
3986;DHT22;2007;48.750;9.278;2023-08-07T00:34:45;21.50;52.00
3986;DHT22;2007;48.750;9.278;2023-08-07T00:37:13;21.50;52.00
3986;DHT22;2007;48.750;9.278;2023-08-07T00:39:41;21.50;52.00
3986;DHT22;2007;48.750;9.278;2023-08-07T00:42:10;21.50;52.00
3986;DHT22;2007;48.750;9.278;2023-08-07T00:44:38;21.50;52.00
3986;DHT22;2007;48.750;9.278;2023-08-07T00:47:06;21.50;52.00
3986;DHT22;2007;48.750;9.278;2023-08-07T00:49:35;21.50;52.00
3986;DHT22;2007;48.750;9.278;2023-08-07T00:52:04;21.50;52.00
3986;DHT22;2007;48.750;9.278;2023-08-07T00:54:32;21.50;52.00
3986;DHT22;2007;48.750;9.278;2023-08-07T00:57:09;21.50;52.00
3986;DHT22;2007;48.750;9.278;2023-08-07T00:59:39;21.40;52.00
3986;DHT22;2007;48.750;9.278;2023-08-07T01:02:08;21.50;52.30
3986;DHT22;2007;48.750;9.278;2023-08-07T01:04:37;21.50;52.00
3986;DHT22;2007;48.750;9.278;2023-08-07T01:07:06;21.50;52.00
3986;DHT22;2007;48.750;9.278;2023-08-07T01:09:34;21.50;52.00
3986;DHT22;2007;48.750;9.278;2023-08-07T01:12:09;21.40;52.00
3986;DHT22;2007;48.750;9.278;2023-08-07T01:14:49;21.40;52.60
3986;DHT22;2007;48.750;9.278;2023-08-07T01:17:19;21.40;52.00
3986;DHT22;2007;48.750;9.278;2023-08-07T01:19:50;21.40;52.00
3986;DHT22;2007;48.750;9.278;2023-08-07T01:22:20;21.40;52.00
3986;DHT22;2007;48.750;9.278;2023-08-07T01:24:49;21.40;52.00
3986;DHT22;2007;48.750;9.278;2023-08-07T01:27:33;21.40;52.00
3986;DHT22;2007;48.750;9.278;2023-08-07T01:30:09;21.40;52.00
3986;DHT22;2007;48.750;9.278;2023-08-07T01:32:44;21.40;52.00
3986;DHT22;2007;48.750;9.278;2023-08-07T01:35:16;21.40;52.00
3986;DHT22;2007;48.750;9.278;2023-08-07T01:37:46;21.40;52.00
3986;DHT22;2007;48.750;9.278;2023-08-07T01:40:15;21.40;52.00
3986;DHT22;2007;48.750;9.278;2023-08-07T01:42:44;21.40;52.00
3986;DHT22;2007;48.750;9.278;2023-08-07T01:45:14;21.40;52.00
3986;DHT22;2007;48.750;9.278;2023-08-07T01:47:41;21.40;52.00
3986;DHT22;2007;48.750;9.278;2023-08-07T01:50:10;21.40;52.00
3986;DHT22;2007;48.750;9.278;2023-08-07T01:52:37;21.40;52.00
3986;DHT22;2007;48.750;9.278;2023-08-07T01:55:07;21.40;52.00
3986;DHT22;2007;48.750;9.278;2023-08-07T01:57:35;21.40;52.00
3986;DHT22;2007;48.750;9.278;2023-08-07T02:00:04;21.40;52.00
3986;DHT22;2007;48.750;9.278;2023-08-07T02:02:32;21.40;52.00
3986;DHT22;2007;48.750;9.278;2023-08-07T02:05:00;21.40;52.00
3986;DHT22;2007;48.750;9.278;2023-08-07T02:07:28;21.40;52.00
3986;DHT22;2007;48.750;9.278;2023-08-07T02:09:57;21.40;52.00
3986;DHT22;2007;48.750;9.278;2023-08-07T02:12:26;21.40;52.00
3986;DHT22;2007;48.750;9.278;2023-08-07T02:14:56;21.40;52.00
3986;DHT22;2007;48.750;9.278;2023-08-07T02:17:24;21.40;52.00
3986;DHT22;2007;48.750;9.278;2023-08-07T02:19:52;21.30;51.90
3986;DHT22;2007;48.750;9.278;2023-08-07T02:22:20;21.30;51.90
3986;DHT22;2007;48.750;9.278;2023-08-07T02:24:48;21.40;52.00
3986;DHT22;2007;48.750;9.278;2023-08-07T02:27:16;21.40;52.00
3986;DHT22;2007;48.750;9.278;2023-08-07T02:29:45;21.40;52.00
3986;DHT22;2007;48.750;9.278;2023-08-07T02:32:13;21.40;52.00
3986;DHT22;2007;48.750;9.278;2023-08-07T02:34:41;21.30;51.90
3986;DHT22;2007;48.750;9.278;2023-08-07T02:37:10;21.30;51.90
3986;DHT22;2007;48.750;9.278;2023-08-07T02:39:38;21.30;51.90
3986;DHT22;2007;48.750;9.278;2023-08-07T02:42:06;21.30;51.90
3986;DHT22;2007;48.750;9.278;2023-08-07T02:44:34;21.30;51.90
3986;DHT22;2007;48.750;9.278;2023-08-07T02:47:04;21.30;51.90
3986;DHT22;2007;48.750;9.278;2023-08-07T02:49:32;21.30;51.90
3986;DHT22;2007;48.750;9.278;2023-08-07T02:52:00;21.30;51.90
3986;DHT22;2007;48.750;9.278;2023-08-07T02:54:28;21.30;51.90
3986;DHT22;2007;48.750;9.278;2023-08-07T02:56:56;21.30;51.90
3986;DHT22;2007;48.750;9.278;2023-08-07T02:59:24;21.30;51.90
3986;DHT22;2007;48.750;9.278;2023-08-07T03:01:52;21.30;51.90
3986;DHT22;2007;48.750;9.278;2023-08-07T03:04:21;21.30;51.90
3986;DHT22;2007;48.750;9.278;2023-08-07T03:06:49;21.30;51.90
3986;DHT22;2007;48.750;9.278;2023-08-07T03:09:17;21.30;51.90
3986;DHT22;2007;48.750;9.278;2023-08-07T03:11:45;21.30;51.90
3986;DHT22;2007;48.750;9.278;2023-08-07T03:14:13;21.30;51.90
3986;DHT22;2007;48.750;9.278;2023-08-07T03:16:41;21.30;51.90
3986;DHT22;2007;48.750;9.278;2023-08-07T03:19:09;21.30;51.90
3986;DHT22;2007;48.750;9.278;2023-08-07T03:21:38;21.30;51.90
3986;DHT22;2007;48.750;9.278;2023-08-07T03:24:06;21.30;51.90
3986;DHT22;2007;48.750;9.278;2023-08-07T03:26:38;21.30;51.90
3986;DHT22;2007;48.750;9.278;2023-08-07T03:29:07;21.30;51.90
3986;DHT22;2007;48.750;9.278;2023-08-07T03:31:35;21.30;51.90
3986;DHT22;2007;48.750;9.278;2023-08-07T03:34:03;21.20;51.80
3986;DHT22;2007;48.750;9.278;2023-08-07T03:36:31;21.20;51.80
3986;DHT22;2007;48.750;9.278;2023-08-07T03:39:00;21.30;51.90
3986;DHT22;2007;48.750;9.278;2023-08-07T03:41:28;21.30;51.90
3986;DHT22;2007;48.750;9.278;2023-08-07T03:43:56;21.20;51.80
3986;DHT22;2007;48.750;9.278;2023-08-07T03:46:24;21.30;51.90
3986;DHT22;2007;48.750;9.278;2023-08-07T03:48:52;21.20;51.80
3986;DHT22;2007;48.750;9.278;2023-08-07T03:51:20;21.20;51.80
3986;DHT22;2007;48.750;9.278;2023-08-07T03:53:48;21.30;51.90
3986;DHT22;2007;48.750;9.278;2023-08-07T03:56:18;21.20;51.80
3986;DHT22;2007;48.750;9.278;2023-08-07T03:58:45;21.20;51.80
3986;DHT22;2007;48.750;9.278;2023-08-07T04:01:16;21.20;51.80
3986;DHT22;2007;48.750;9.278;2023-08-07T04:03:46;21.20;51.80
3986;DHT22;2007;48.750;9.278;2023-08-07T04:06:14;21.30;51.90
3986;DHT22;2007;48.750;9.278;2023-08-07T04:08:45;21.30;51.90
3986;DHT22;2007;48.750;9.278;2023-08-07T04:11:13;21.20;51.80
3986;DHT22;2007;48.750;9.278;2023-08-07T04:13:42;21.20;51.80
3986;DHT22;2007;48.750;9.278;2023-08-07T04:16:10;21.20;51.80
3986;DHT22;2007;48.750;9.278;2023-08-07T04:18:38;21.20;51.80
3986;DHT22;2007;48.750;9.278;2023-08-07T04:21:06;21.20;51.80
3986;DHT22;2007;48.750;9.278;2023-08-07T04:23:34;21.20;51.80
3986;DHT22;2007;48.750;9.278;2023-08-07T04:26:03;21.20;51.80
3986;DHT22;2007;48.750;9.278;2023-08-07T04:28:31;21.20;51.80
3986;DHT22;2007;48.750;9.278;2023-08-07T04:31:00;21.20;51.80
3986;DHT22;2007;48.750;9.278;2023-08-07T04:33:28;21.20;51.80
3986;DHT22;2007;48.750;9.278;2023-08-07T04:35:56;21.20;51.80
3986;DHT22;2007;48.750;9.278;2023-08-07T04:38:24;21.20;51.80
3986;DHT22;2007;48.750;9.278;2023-08-07T04:40:52;21.20;51.80
3986;DHT22;2007;48.750;9.278;2023-08-07T04:43:20;21.20;51.80
3986;DHT22;2007;48.750;9.278;2023-08-07T04:45:48;21.20;51.80
3986;DHT22;2007;48.750;9.278;2023-08-07T04:48:18;21.20;51.80
3986;DHT22;2007;48.750;9.278;2023-08-07T04:50:47;21.20;51.80
3986;DHT22;2007;48.750;9.278;2023-08-07T04:53:16;21.20;51.80
3986;DHT22;2007;48.750;9.278;2023-08-07T04:55:44;21.20;51.80
3986;DHT22;2007;48.750;9.278;2023-08-07T04:58:12;21.20;51.80
3986;DHT22;2007;48.750;9.278;2023-08-07T05:00:40;21.20;51.80
3986;DHT22;2007;48.750;9.278;2023-08-07T05:03:08;21.20;51.80
3986;DHT22;2007;48.750;9.278;2023-08-07T05:05:37;21.20;51.80
3986;DHT22;2007;48.750;9.278;2023-08-07T05:08:05;21.20;51.80
3986;DHT22;2007;48.750;9.278;2023-08-07T05:10:33;21.20;51.80
3986;DHT22;2007;48.750;9.278;2023-08-07T05:13:01;21.20;51.90
3986;DHT22;2007;48.750;9.278;2023-08-07T05:15:29;21.10;51.70
3986;DHT22;2007;48.750;9.278;2023-08-07T05:17:58;21.10;51.70
3986;DHT22;2007;48.750;9.278;2023-08-07T05:20:26;21.10;51.80
3986;DHT22;2007;48.750;9.278;2023-08-07T05:22:55;21.20;51.80
3986;DHT22;2007;48.750;9.278;2023-08-07T05:25:23;21.10;51.70
3986;DHT22;2007;48.750;9.278;2023-08-07T05:27:51;21.20;51.80
3986;DHT22;2007;48.750;9.278;2023-08-07T05:30:19;21.10;51.70
3986;DHT22;2007;48.750;9.278;2023-08-07T05:32:47;21.10;51.70
3986;DHT22;2007;48.750;9.278;2023-08-07T05:35:15;21.10;51.70
3986;DHT22;2007;48.750;9.278;2023-08-07T05:37:43;21.10;51.80
3986;DHT22;2007;48.750;9.278;2023-08-07T05:40:12;21.10;51.80
3986;DHT22;2007;48.750;9.278;2023-08-07T05:42:40;21.10;51.80
3986;DHT22;2007;48.750;9.278;2023-08-07T05:45:09;21.10;51.80
3986;DHT22;2007;48.750;9.278;2023-08-07T05:47:37;21.10;51.80
3986;DHT22;2007;48.750;9.278;2023-08-07T05:50:06;21.10;51.80
3986;DHT22;2007;48.750;9.278;2023-08-07T05:52:34;21.10;51.80
3986;DHT22;2007;48.750;9.278;2023-08-07T05:55:03;21.10;51.80
3986;DHT22;2007;48.750;9.278;2023-08-07T05:57:34;21.10;51.80
3986;DHT22;2007;48.750;9.278;2023-08-07T06:00:03;21.10;51.80
3986;DHT22;2007;48.750;9.278;2023-08-07T06:02:31;21.10;51.80
3986;DHT22;2007;48.750;9.278;2023-08-07T06:05:00;21.10;51.80
3986;DHT22;2007;48.750;9.278;2023-08-07T06:07:27;21.10;51.80
3986;DHT22;2007;48.750;9.278;2023-08-07T06:09:55;21.10;52.40
3986;DHT22;2007;48.750;9.278;2023-08-07T06:12:23;21.10;51.80
3986;DHT22;2007;48.750;9.278;2023-08-07T06:14:53;21.10;51.80
3986;DHT22;2007;48.750;9.278;2023-08-07T06:17:21;21.10;51.80
3986;DHT22;2007;48.750;9.278;2023-08-07T06:19:49;21.10;51.80
3986;DHT22;2007;48.750;9.278;2023-08-07T06:22:17;21.10;51.80
3986;DHT22;2007;48.750;9.278;2023-08-07T06:24:44;21.00;51.70
3986;DHT22;2007;48.750;9.278;2023-08-07T06:27:12;21.10;51.80
3986;DHT22;2007;48.750;9.278;2023-08-07T06:29:40;21.10;51.80
3986;DHT22;2007;48.750;9.278;2023-08-07T06:32:10;21.10;51.80
3986;DHT22;2007;48.750;9.278;2023-08-07T06:34:37;21.00;51.70
3986;DHT22;2007;48.750;9.278;2023-08-07T06:37:05;21.10;51.80
3986;DHT22;2007;48.750;9.278;2023-08-07T06:39:33;21.10;51.80
3986;DHT22;2007;48.750;9.278;2023-08-07T06:42:01;21.00;51.70
3986;DHT22;2007;48.750;9.278;2023-08-07T06:44:29;21.00;51.70
3986;DHT22;2007;48.750;9.278;2023-08-07T06:46:58;21.10;51.80
3986;DHT22;2007;48.750;9.278;2023-08-07T06:49:27;21.00;51.70
3986;DHT22;2007;48.750;9.278;2023-08-07T06:51:55;21.00;51.70
3986;DHT22;2007;48.750;9.278;2023-08-07T06:54:23;21.00;51.70
3986;DHT22;2007;48.750;9.278;2023-08-07T06:56:51;21.00;51.80
3986;DHT22;2007;48.750;9.278;2023-08-07T06:59:19;21.00;51.80
3986;DHT22;2007;48.750;9.278;2023-08-07T07:01:47;21.00;51.80
3986;DHT22;2007;48.750;9.278;2023-08-07T07:04:15;21.00;51.80
3986;DHT22;2007;48.750;9.278;2023-08-07T07:06:45;21.00;51.80
3986;DHT22;2007;48.750;9.278;2023-08-07T07:09:13;21.00;51.80
3986;DHT22;2007;48.750;9.278;2023-08-07T07:11:43;21.00;51.80
3986;DHT22;2007;48.750;9.278;2023-08-07T07:14:11;21.00;51.80
3986;DHT22;2007;48.750;9.278;2023-08-07T07:16:39;21.00;51.80
3986;DHT22;2007;48.750;9.278;2023-08-07T07:19:08;21.00;51.80
3986;DHT22;2007;48.750;9.278;2023-08-07T07:21:36;21.00;51.80
3986;DHT22;2007;48.750;9.278;2023-08-07T07:24:06;21.00;51.80
3986;DHT22;2007;48.750;9.278;2023-08-07T07:26:34;21.00;51.80
3986;DHT22;2007;48.750;9.278;2023-08-07T07:29:02;21.00;51.80
3986;DHT22;2007;48.750;9.278;2023-08-07T07:31:30;21.00;51.80
3986;DHT22;2007;48.750;9.278;2023-08-07T07:33:58;21.00;51.80
3986;DHT22;2007;48.750;9.278;2023-08-07T07:36:26;21.00;51.80
3986;DHT22;2007;48.750;9.278;2023-08-07T07:38:54;21.00;51.80
3986;DHT22;2007;48.750;9.278;2023-08-07T07:41:23;21.00;51.80
3986;DHT22;2007;48.750;9.278;2023-08-07T07:43:51;21.00;51.80
3986;DHT22;2007;48.750;9.278;2023-08-07T07:46:22;21.00;51.80
3986;DHT22;2007;48.750;9.278;2023-08-07T07:48:51;21.00;51.80
3986;DHT22;2007;48.750;9.278;2023-08-07T07:51:19;21.00;51.80
3986;DHT22;2007;48.750;9.278;2023-08-07T07:53:47;21.00;51.80
3986;DHT22;2007;48.750;9.278;2023-08-07T07:56:36;20.90;51.70
3986;DHT22;2007;48.750;9.278;2023-08-07T07:59:04;20.90;51.70
3986;DHT22;2007;48.750;9.278;2023-08-07T08:01:35;21.00;51.80
3986;DHT22;2007;48.750;9.278;2023-08-07T08:04:03;20.90;51.70
3986;DHT22;2007;48.750;9.278;2023-08-07T08:06:32;20.90;51.70
3986;DHT22;2007;48.750;9.278;2023-08-07T08:09:00;20.90;51.70
3986;DHT22;2007;48.750;9.278;2023-08-07T08:11:31;20.90;51.70
3986;DHT22;2007;48.750;9.278;2023-08-07T08:14:01;20.90;51.70
3986;DHT22;2007;48.750;9.278;2023-08-07T08:16:29;20.90;51.70
3986;DHT22;2007;48.750;9.278;2023-08-07T08:18:57;20.90;51.70
3986;DHT22;2007;48.750;9.278;2023-08-07T08:21:25;20.90;51.70
3986;DHT22;2007;48.750;9.278;2023-08-07T08:23:53;20.90;51.70
3986;DHT22;2007;48.750;9.278;2023-08-07T08:26:21;20.90;51.70
3986;DHT22;2007;48.750;9.278;2023-08-07T08:28:48;20.90;51.70
3986;DHT22;2007;48.750;9.278;2023-08-07T08:31:18;20.90;51.70
3986;DHT22;2007;48.750;9.278;2023-08-07T08:33:48;20.90;51.70
3986;DHT22;2007;48.750;9.278;2023-08-07T08:36:16;20.90;51.70
3986;DHT22;2007;48.750;9.278;2023-08-07T08:38:44;20.90;52.40
3986;DHT22;2007;48.750;9.278;2023-08-07T08:41:14;20.90;51.70
3986;DHT22;2007;48.750;9.278;2023-08-07T08:43:46;20.90;51.70
3986;DHT22;2007;48.750;9.278;2023-08-07T08:46:15;20.90;51.70
3986;DHT22;2007;48.750;9.278;2023-08-07T08:48:49;20.90;51.70
3986;DHT22;2007;48.750;9.278;2023-08-07T08:51:18;20.90;51.70
3986;DHT22;2007;48.750;9.278;2023-08-07T08:53:48;20.90;51.70
3986;DHT22;2007;48.750;9.278;2023-08-07T08:56:17;20.90;51.70
3986;DHT22;2007;48.750;9.278;2023-08-07T08:58:45;20.90;52.40
3986;DHT22;2007;48.750;9.278;2023-08-07T09:01:14;20.90;51.70
3986;DHT22;2007;48.750;9.278;2023-08-07T09:03:45;20.90;51.70
3986;DHT22;2007;48.750;9.278;2023-08-07T09:06:13;20.90;51.70
3986;DHT22;2007;48.750;9.278;2023-08-07T09:08:43;20.90;51.70
3986;DHT22;2007;48.750;9.278;2023-08-07T09:11:12;20.80;51.60
3986;DHT22;2007;48.750;9.278;2023-08-07T09:13:43;20.80;51.60
3986;DHT22;2007;48.750;9.278;2023-08-07T09:16:12;20.80;51.60
3986;DHT22;2007;48.750;9.278;2023-08-07T09:18:41;20.80;51.70
3986;DHT22;2007;48.750;9.278;2023-08-07T09:21:11;20.90;51.70
3986;DHT22;2007;48.750;9.278;2023-08-07T09:23:43;20.80;51.60
3986;DHT22;2007;48.750;9.278;2023-08-07T09:26:11;20.80;51.60
3986;DHT22;2007;48.750;9.278;2023-08-07T09:28:39;20.90;51.70
3986;DHT22;2007;48.750;9.278;2023-08-07T09:31:07;20.80;51.70
3986;DHT22;2007;48.750;9.278;2023-08-07T09:33:36;20.80;51.70
3986;DHT22;2007;48.750;9.278;2023-08-07T09:36:06;20.80;51.70
3986;DHT22;2007;48.750;9.278;2023-08-07T09:38:35;20.80;51.60
3986;DHT22;2007;48.750;9.278;2023-08-07T09:41:03;20.80;51.60
3986;DHT22;2007;48.750;9.278;2023-08-07T09:43:34;20.80;51.60
3986;DHT22;2007;48.750;9.278;2023-08-07T09:46:03;20.80;51.60
3986;DHT22;2007;48.750;9.278;2023-08-07T09:48:32;20.80;51.60
3986;DHT22;2007;48.750;9.278;2023-08-07T09:51:06;20.80;52.30
3986;DHT22;2007;48.750;9.278;2023-08-07T09:53:36;20.80;51.60
3986;DHT22;2007;48.750;9.278;2023-08-07T09:56:04;20.80;51.60
3986;DHT22;2007;48.750;9.278;2023-08-07T09:58:33;20.80;51.60
3986;DHT22;2007;48.750;9.278;2023-08-07T10:01:03;20.80;51.60
3986;DHT22;2007;48.750;9.278;2023-08-07T10:03:32;20.80;51.60
3986;DHT22;2007;48.750;9.278;2023-08-07T10:06:00;20.80;51.60
3986;DHT22;2007;48.750;9.278;2023-08-07T10:08:29;20.80;51.60
3986;DHT22;2007;48.750;9.278;2023-08-07T10:11:00;20.80;51.60
3986;DHT22;2007;48.750;9.278;2023-08-07T10:13:29;20.80;51.60
3986;DHT22;2007;48.750;9.278;2023-08-07T10:16:06;20.80;51.60
3986;DHT22;2007;48.750;9.278;2023-08-07T10:18:34;20.80;51.70
3986;DHT22;2007;48.750;9.278;2023-08-07T10:21:05;20.80;51.60
3986;DHT22;2007;48.750;9.278;2023-08-07T10:23:35;20.80;51.60
3986;DHT22;2007;48.750;9.278;2023-08-07T10:26:06;20.80;51.60
3986;DHT22;2007;48.750;9.278;2023-08-07T10:28:37;20.80;51.60
3986;DHT22;2007;48.750;9.278;2023-08-07T10:31:06;20.80;51.60
3986;DHT22;2007;48.750;9.278;2023-08-07T10:33:35;20.80;51.60
3986;DHT22;2007;48.750;9.278;2023-08-07T10:36:08;20.80;51.60
3986;DHT22;2007;48.750;9.278;2023-08-07T10:38:36;20.80;51.60
3986;DHT22;2007;48.750;9.278;2023-08-07T10:41:08;20.80;51.60
3986;DHT22;2007;48.750;9.278;2023-08-07T10:43:37;20.80;51.60
3986;DHT22;2007;48.750;9.278;2023-08-07T10:46:08;20.80;51.60
3986;DHT22;2007;48.750;9.278;2023-08-07T10:48:41;20.80;51.70
3986;DHT22;2007;48.750;9.278;2023-08-07T10:51:12;20.80;51.70
3986;DHT22;2007;48.750;9.278;2023-08-07T10:53:42;20.80;51.60
3986;DHT22;2007;48.750;9.278;2023-08-07T10:56:16;20.80;51.60
3986;DHT22;2007;48.750;9.278;2023-08-07T10:58:49;20.80;51.60
3986;DHT22;2007;48.750;9.278;2023-08-07T11:01:20;20.80;51.60
3986;DHT22;2007;48.750;9.278;2023-08-07T11:03:52;20.80;51.60
3986;DHT22;2007;48.750;9.278;2023-08-07T11:06:31;20.80;51.60
3986;DHT22;2007;48.750;9.278;2023-08-07T11:08:59;20.80;51.60
3986;DHT22;2007;48.750;9.278;2023-08-07T11:11:35;20.80;51.60
3986;DHT22;2007;48.750;9.278;2023-08-07T11:14:06;20.70;51.50
3986;DHT22;2007;48.750;9.278;2023-08-07T11:16:34;20.80;51.60
3986;DHT22;2007;48.750;9.278;2023-08-07T11:19:02;20.80;51.60
3986;DHT22;2007;48.750;9.278;2023-08-07T11:21:31;20.80;51.70
3986;DHT22;2007;48.750;9.278;2023-08-07T11:24:01;20.80;51.60
3986;DHT22;2007;48.750;9.278;2023-08-07T11:26:30;20.70;51.50
3986;DHT22;2007;48.750;9.278;2023-08-07T11:28:58;20.80;51.70
3986;DHT22;2007;48.750;9.278;2023-08-07T11:31:26;20.70;51.50
3986;DHT22;2007;48.750;9.278;2023-08-07T11:33:55;20.80;51.60
3986;DHT22;2007;48.750;9.278;2023-08-07T11:36:24;20.70;51.50
3986;DHT22;2007;48.750;9.278;2023-08-07T11:38:52;20.70;51.50
3986;DHT22;2007;48.750;9.278;2023-08-07T11:41:20;20.80;51.60
3986;DHT22;2007;48.750;9.278;2023-08-07T11:43:49;20.80;51.60
3986;DHT22;2007;48.750;9.278;2023-08-07T11:46:17;20.80;51.60
3986;DHT22;2007;48.750;9.278;2023-08-07T11:48:45;20.80;51.60
3986;DHT22;2007;48.750;9.278;2023-08-07T11:51:13;20.70;51.50
3986;DHT22;2007;48.750;9.278;2023-08-07T11:53:42;20.70;51.50
3986;DHT22;2007;48.750;9.278;2023-08-07T11:56:11;20.80;51.60
3986;DHT22;2007;48.750;9.278;2023-08-07T11:58:42;20.80;51.60
3986;DHT22;2007;48.750;9.278;2023-08-07T12:01:15;20.80;52.20
3986;DHT22;2007;48.750;9.278;2023-08-07T12:03:52;20.70;51.50
3986;DHT22;2007;48.750;9.278;2023-08-07T12:06:21;20.70;51.50
3986;DHT22;2007;48.750;9.278;2023-08-07T12:08:52;20.70;51.50
3986;DHT22;2007;48.750;9.278;2023-08-07T12:11:21;20.80;51.60
3986;DHT22;2007;48.750;9.278;2023-08-07T12:13:49;20.80;52.20
3986;DHT22;2007;48.750;9.278;2023-08-07T12:16:19;20.70;51.50
3986;DHT22;2007;48.750;9.278;2023-08-07T12:18:48;20.80;51.60
3986;DHT22;2007;48.750;9.278;2023-08-07T12:21:17;20.70;51.50
3986;DHT22;2007;48.750;9.278;2023-08-07T12:23:47;20.70;51.50
3986;DHT22;2007;48.750;9.278;2023-08-07T12:26:16;20.70;51.50
3986;DHT22;2007;48.750;9.278;2023-08-07T12:28:44;20.70;51.50
3986;DHT22;2007;48.750;9.278;2023-08-07T12:31:11;20.70;51.50
3986;DHT22;2007;48.750;9.278;2023-08-07T12:33:41;20.70;51.50
3986;DHT22;2007;48.750;9.278;2023-08-07T12:36:09;20.70;51.50
3986;DHT22;2007;48.750;9.278;2023-08-07T12:38:40;20.70;51.50
3986;DHT22;2007;48.750;9.278;2023-08-07T12:41:08;20.70;51.50
3986;DHT22;2007;48.750;9.278;2023-08-07T12:43:56;20.70;51.50
3986;DHT22;2007;48.750;9.278;2023-08-07T12:46:25;20.70;51.50
3986;DHT22;2007;48.750;9.278;2023-08-07T12:48:57;20.70;51.50
3986;DHT22;2007;48.750;9.278;2023-08-07T12:51:25;20.70;51.50
3986;DHT22;2007;48.750;9.278;2023-08-07T12:53:53;20.70;51.60
3986;DHT22;2007;48.750;9.278;2023-08-07T12:56:21;20.70;51.60
3986;DHT22;2007;48.750;9.278;2023-08-07T12:58:49;20.70;51.50
3986;DHT22;2007;48.750;9.278;2023-08-07T13:01:17;20.70;51.60
3986;DHT22;2007;48.750;9.278;2023-08-07T13:03:45;20.70;51.60
3986;DHT22;2007;48.750;9.278;2023-08-07T13:06:14;20.70;51.60
3986;DHT22;2007;48.750;9.278;2023-08-07T13:08:42;20.70;51.60
3986;DHT22;2007;48.750;9.278;2023-08-07T13:11:12;20.70;51.60
3986;DHT22;2007;48.750;9.278;2023-08-07T13:13:40;20.70;51.60
3986;DHT22;2007;48.750;9.278;2023-08-07T13:16:11;20.70;51.60
3986;DHT22;2007;48.750;9.278;2023-08-07T13:18:39;20.70;51.60
3986;DHT22;2007;48.750;9.278;2023-08-07T13:21:07;20.70;51.60
3986;DHT22;2007;48.750;9.278;2023-08-07T13:23:36;20.70;51.60
3986;DHT22;2007;48.750;9.278;2023-08-07T13:26:04;20.70;51.60
3986;DHT22;2007;48.750;9.278;2023-08-07T13:28:32;20.70;51.60
3986;DHT22;2007;48.750;9.278;2023-08-07T13:31:00;20.70;51.60
3986;DHT22;2007;48.750;9.278;2023-08-07T13:33:28;20.70;51.60
3986;DHT22;2007;48.750;9.278;2023-08-07T13:35:56;20.70;51.60
3986;DHT22;2007;48.750;9.278;2023-08-07T13:38:24;20.70;51.60
3986;DHT22;2007;48.750;9.278;2023-08-07T13:40:54;20.70;51.60
3986;DHT22;2007;48.750;9.278;2023-08-07T13:43:22;20.70;51.60
3986;DHT22;2007;48.750;9.278;2023-08-07T13:45:49;20.70;51.60
3986;DHT22;2007;48.750;9.278;2023-08-07T13:48:18;20.70;51.60
3986;DHT22;2007;48.750;9.278;2023-08-07T13:50:46;20.70;51.60
3986;DHT22;2007;48.750;9.278;2023-08-07T13:53:14;20.70;51.60
3986;DHT22;2007;48.750;9.278;2023-08-07T13:55:43;20.70;51.60
3986;DHT22;2007;48.750;9.278;2023-08-07T13:58:13;20.70;51.60
3986;DHT22;2007;48.750;9.278;2023-08-07T14:00:42;20.70;51.60
3986;DHT22;2007;48.750;9.278;2023-08-07T14:03:10;20.70;51.60
3986;DHT22;2007;48.750;9.278;2023-08-07T14:05:40;20.70;51.60
3986;DHT22;2007;48.750;9.278;2023-08-07T14:08:08;20.70;51.60
3986;DHT22;2007;48.750;9.278;2023-08-07T14:10:37;20.70;51.60
3986;DHT22;2007;48.750;9.278;2023-08-07T14:13:07;20.70;51.60
3986;DHT22;2007;48.750;9.278;2023-08-07T14:15:37;20.70;51.60
3986;DHT22;2007;48.750;9.278;2023-08-07T14:18:05;20.70;51.60
3986;DHT22;2007;48.750;9.278;2023-08-07T14:20:35;20.70;51.60
3986;DHT22;2007;48.750;9.278;2023-08-07T14:23:22;20.70;51.60
3986;DHT22;2007;48.750;9.278;2023-08-07T14:25:50;20.70;51.60
3986;DHT22;2007;48.750;9.278;2023-08-07T14:28:19;20.70;51.60
3986;DHT22;2007;48.750;9.278;2023-08-07T14:30:49;20.60;51.50
3986;DHT22;2007;48.750;9.278;2023-08-07T14:33:17;20.70;51.60
3986;DHT22;2007;48.750;9.278;2023-08-07T14:35:45;20.70;51.60
3986;DHT22;2007;48.750;9.278;2023-08-07T14:38:13;20.70;51.60
3986;DHT22;2007;48.750;9.278;2023-08-07T14:40:41;20.70;51.60
3986;DHT22;2007;48.750;9.278;2023-08-07T14:43:09;20.70;51.60
3986;DHT22;2007;48.750;9.278;2023-08-07T14:45:38;20.70;51.60
3986;DHT22;2007;48.750;9.278;2023-08-07T14:48:07;20.70;51.60
3986;DHT22;2007;48.750;9.278;2023-08-07T14:50:35;20.70;51.60
3986;DHT22;2007;48.750;9.278;2023-08-07T14:53:03;20.70;51.60
3986;DHT22;2007;48.750;9.278;2023-08-07T14:55:31;20.70;51.60
3986;DHT22;2007;48.750;9.278;2023-08-07T14:57:59;20.70;51.60
3986;DHT22;2007;48.750;9.278;2023-08-07T15:00:27;20.70;51.60
3986;DHT22;2007;48.750;9.278;2023-08-07T15:02:56;20.60;51.50
3986;DHT22;2007;48.750;9.278;2023-08-07T15:05:26;20.70;51.60
3986;DHT22;2007;48.750;9.278;2023-08-07T15:07:54;20.60;51.50
3986;DHT22;2007;48.750;9.278;2023-08-07T15:10:22;20.60;51.50
3986;DHT22;2007;48.750;9.278;2023-08-07T15:12:52;20.70;51.60
3986;DHT22;2007;48.750;9.278;2023-08-07T15:15:20;20.70;51.60
3986;DHT22;2007;48.750;9.278;2023-08-07T15:17:48;20.70;51.50
3986;DHT22;2007;48.750;9.278;2023-08-07T15:20:16;20.70;51.50
3986;DHT22;2007;48.750;9.278;2023-08-07T15:22:48;20.70;51.50
3986;DHT22;2007;48.750;9.278;2023-08-07T15:25:16;20.70;51.50
3986;DHT22;2007;48.750;9.278;2023-08-07T15:27:44;20.70;51.50
3986;DHT22;2007;48.750;9.278;2023-08-07T15:30:12;20.70;51.40
3986;DHT22;2007;48.750;9.278;2023-08-07T15:32:40;20.70;51.40
3986;DHT22;2007;48.750;9.278;2023-08-07T15:35:08;20.70;51.40
3986;DHT22;2007;48.750;9.278;2023-08-07T15:37:37;20.70;51.30
3986;DHT22;2007;48.750;9.278;2023-08-07T15:40:08;20.70;51.30
3986;DHT22;2007;48.750;9.278;2023-08-07T15:42:36;20.70;51.30
3986;DHT22;2007;48.750;9.278;2023-08-07T15:45:05;20.70;51.30
3986;DHT22;2007;48.750;9.278;2023-08-07T15:47:33;20.70;51.40
3986;DHT22;2007;48.750;9.278;2023-08-07T15:50:01;20.70;51.40
3986;DHT22;2007;48.750;9.278;2023-08-07T15:52:29;20.70;51.40
3986;DHT22;2007;48.750;9.278;2023-08-07T15:54:57;20.70;51.40
3986;DHT22;2007;48.750;9.278;2023-08-07T15:57:26;20.70;51.40
3986;DHT22;2007;48.750;9.278;2023-08-07T15:59:54;20.70;51.40
3986;DHT22;2007;48.750;9.278;2023-08-07T16:02:22;20.70;51.50
3986;DHT22;2007;48.750;9.278;2023-08-07T16:04:50;20.70;51.40
3986;DHT22;2007;48.750;9.278;2023-08-07T16:07:18;20.70;51.50
3986;DHT22;2007;48.750;9.278;2023-08-07T16:09:49;20.70;51.50
3986;DHT22;2007;48.750;9.278;2023-08-07T16:12:17;20.70;51.50